createdAt,value
2018-09-07T00:00:44.799Z,18.50
2018-09-07T00:03:12.949Z,18.50
2018-09-07T00:05:41.164Z,18.40
2018-09-07T00:08:09.299Z,18.30
2018-09-07T00:10:37.411Z,18.30
2018-09-07T00:13:07.232Z,18.20
2018-09-07T00:15:35.607Z,18.20
2018-09-07T00:18:03.771Z,18.30
2018-09-07T00:20:31.877Z,18.30
2018-09-07T00:22:59.979Z,18.40
2018-09-07T00:25:28.104Z,18.40
2018-09-07T00:28:07.144Z,18.40
2018-09-07T00:30:35.320Z,18.40
2018-09-07T00:33:03.454Z,18.50
2018-09-07T00:35:31.603Z,18.50
2018-09-07T00:37:59.736Z,18.60
2018-09-07T00:40:27.857Z,18.60
2018-09-07T00:42:55.975Z,18.50
2018-09-07T00:45:24.088Z,18.60
2018-09-07T00:47:52.214Z,18.60
2018-09-07T00:50:20.343Z,18.60
2018-09-07T00:52:48.472Z,18.60
2018-09-07T00:55:16.594Z,18.60
2018-09-07T00:57:44.826Z,18.50
2018-09-07T01:00:12.994Z,18.60
2018-09-07T01:02:44.456Z,18.50
2018-09-07T01:05:13.452Z,18.40
2018-09-07T01:07:41.722Z,18.50
2018-09-07T01:10:10.119Z,18.50
2018-09-07T01:12:38.392Z,18.50
2018-09-07T01:15:06.554Z,18.60
2018-09-07T01:17:34.663Z,18.60
2018-09-07T01:20:02.788Z,18.60
2018-09-07T01:22:30.927Z,18.70
2018-09-07T01:24:59.067Z,18.70
2018-09-07T01:27:27.435Z,18.60
2018-09-07T01:29:55.574Z,18.40
2018-09-07T01:32:23.709Z,18.40
2018-09-07T01:34:52.274Z,18.50
2018-09-07T01:37:25.784Z,18.60
2018-09-07T01:39:54.631Z,18.40
2018-09-07T01:42:22.803Z,18.40
2018-09-07T01:44:51.019Z,18.40
2018-09-07T01:47:19.146Z,18.40
2018-09-07T01:49:47.304Z,18.50
2018-09-07T01:52:15.440Z,18.60
2018-09-07T01:54:43.636Z,18.60
2018-09-07T01:57:11.784Z,18.70
2018-09-07T01:59:39.923Z,18.60
2018-09-07T02:02:08.056Z,18.60
2018-09-07T02:04:36.179Z,18.60
2018-09-07T02:07:04.366Z,18.60
2018-09-07T02:09:32.518Z,18.70
2018-09-07T02:12:00.648Z,18.70
2018-09-07T02:14:28.787Z,18.70
2018-09-07T02:16:56.928Z,18.70
2018-09-07T02:19:25.054Z,18.70
2018-09-07T02:21:53.237Z,18.70
2018-09-07T02:24:21.360Z,18.70
2018-09-07T02:26:49.515Z,18.70
2018-09-07T02:29:17.631Z,18.80
2018-09-07T02:31:45.769Z,18.70
2018-09-07T02:34:13.908Z,18.70
2018-09-07T02:36:42.044Z,18.80
2018-09-07T02:39:10.652Z,18.80
2018-09-07T02:41:38.800Z,18.80
2018-09-07T02:44:07.210Z,18.80
2018-09-07T02:46:35.511Z,18.80
2018-09-07T02:49:03.882Z,18.90
2018-09-07T02:51:32.143Z,18.80
2018-09-07T02:54:00.336Z,18.70
2018-09-07T02:56:28.460Z,18.60
2018-09-07T02:58:56.605Z,18.50
2018-09-07T03:01:24.723Z,18.50
2018-09-07T03:03:53.043Z,18.50
2018-09-07T03:06:21.165Z,18.60
2018-09-07T03:08:49.483Z,18.70
2018-09-07T03:11:17.763Z,18.70
2018-09-07T03:13:45.917Z,18.80
2018-09-07T03:16:14.054Z,18.80
2018-09-07T03:18:42.526Z,18.80
2018-09-07T03:21:10.688Z,18.80
2018-09-07T03:23:38.857Z,18.80
2018-09-07T03:26:07.549Z,18.80
2018-09-07T03:28:35.660Z,18.80
2018-09-07T03:31:03.779Z,18.80
2018-09-07T03:33:31.892Z,18.70
2018-09-07T03:36:00.029Z,18.60
2018-09-07T03:38:28.158Z,18.30
2018-09-07T03:40:56.276Z,18.20
2018-09-07T03:43:24.483Z,18.10
2018-09-07T03:45:52.608Z,18.00
2018-09-07T03:48:20.733Z,17.80
2018-09-07T03:50:49.000Z,17.80
2018-09-07T03:53:17.094Z,17.80
2018-09-07T03:55:45.241Z,17.90
2018-09-07T03:58:13.409Z,18.00
2018-09-07T04:00:41.527Z,18.10
2018-09-07T04:03:09.745Z,18.10
2018-09-07T04:05:37.867Z,18.10
2018-09-07T04:08:06.020Z,18.20
2018-09-07T04:10:34.143Z,18.10
2018-09-07T04:13:02.291Z,18.00
2018-09-07T04:15:30.428Z,17.90
2018-09-07T04:17:58.562Z,17.70
2018-09-07T04:20:26.693Z,17.50
2018-09-07T04:22:54.818Z,17.30
2018-09-07T04:25:22.965Z,17.30
2018-09-07T04:27:51.101Z,17.30
2018-09-07T04:30:19.245Z,17.30
2018-09-07T04:32:47.392Z,17.40
2018-09-07T04:35:15.525Z,17.50
2018-09-07T04:37:43.710Z,17.40
2018-09-07T04:40:11.866Z,17.40
2018-09-07T04:42:39.999Z,17.50
2018-09-07T04:45:08.177Z,17.50
2018-09-07T04:47:36.320Z,17.60
2018-09-07T04:50:04.463Z,17.70
2018-09-07T04:52:32.588Z,17.80
2018-09-07T04:55:00.723Z,17.90
2018-09-07T04:57:28.868Z,17.90
2018-09-07T04:59:56.988Z,17.80
2018-09-07T05:02:25.124Z,17.90
2018-09-07T05:04:53.260Z,18.00
2018-09-07T05:07:21.389Z,18.10
2018-09-07T05:09:49.531Z,18.10
2018-09-07T05:12:17.690Z,18.20
2018-09-07T05:14:45.829Z,18.10
2018-09-07T05:17:13.943Z,18.20
2018-09-07T05:19:42.109Z,18.20
2018-09-07T05:22:10.312Z,18.20
2018-09-07T05:24:38.484Z,18.30
2018-09-07T05:27:06.596Z,18.30
2018-09-07T05:29:34.749Z,18.40
2018-09-07T05:32:02.853Z,18.40
2018-09-07T05:34:30.977Z,18.40
2018-09-07T05:36:59.090Z,18.40
2018-09-07T05:39:27.253Z,18.30
2018-09-07T05:41:55.327Z,18.40
2018-09-07T05:44:23.468Z,18.30
2018-09-07T05:46:51.580Z,18.30
2018-09-07T05:49:19.728Z,18.30
2018-09-07T05:51:47.895Z,18.30
2018-09-07T05:54:16.008Z,18.20
2018-09-07T05:56:44.276Z,18.20
2018-09-07T05:59:12.649Z,18.20
2018-09-07T06:01:40.845Z,18.20
2018-09-07T06:04:08.965Z,18.30
2018-09-07T06:06:37.284Z,18.20
2018-09-07T06:09:07.965Z,18.20
2018-09-07T06:11:36.089Z,18.10
2018-09-07T06:14:04.211Z,18.00
2018-09-07T06:16:32.351Z,18.00
2018-09-07T06:19:00.416Z,17.90
2018-09-07T06:21:28.535Z,17.80
2018-09-07T06:23:56.792Z,17.80
2018-09-07T06:26:25.046Z,17.80
2018-09-07T06:28:53.245Z,17.90
2018-09-07T06:31:21.363Z,18.00
2018-09-07T06:33:49.477Z,18.00
2018-09-07T06:36:17.611Z,17.90
2018-09-07T06:38:45.745Z,17.90
2018-09-07T06:41:13.840Z,17.90
2018-09-07T06:43:41.940Z,17.80
2018-09-07T06:46:10.076Z,17.80
2018-09-07T06:48:38.240Z,17.80
2018-09-07T06:51:06.461Z,17.80
2018-09-07T06:53:34.588Z,17.90
2018-09-07T06:56:02.700Z,17.90
2018-09-07T06:58:31.618Z,18.00
2018-09-07T07:00:59.748Z,18.10
2018-09-07T07:03:27.867Z,18.10
2018-09-07T07:05:56.005Z,18.20
2018-09-07T07:08:24.284Z,18.30
2018-09-07T07:10:52.494Z,18.30
2018-09-07T07:13:20.597Z,18.30
2018-09-07T07:15:48.704Z,18.30
2018-09-07T07:18:16.815Z,18.30
2018-09-07T07:20:44.940Z,18.30
2018-09-07T07:23:13.135Z,18.40
2018-09-07T07:25:41.436Z,18.50
2018-09-07T07:28:09.562Z,18.60
2018-09-07T07:30:37.664Z,18.70
2018-09-07T07:33:06.020Z,18.80
2018-09-07T07:35:34.132Z,18.90
2018-09-07T07:38:02.238Z,19.10
2018-09-07T07:40:30.339Z,19.20
2018-09-07T07:42:58.501Z,19.30
2018-09-07T07:45:26.617Z,19.40
2018-09-07T07:47:54.818Z,19.50
2018-09-07T07:50:22.849Z,19.40
2018-09-07T07:52:50.971Z,19.60
2018-09-07T07:55:19.085Z,19.60
2018-09-07T07:57:47.215Z,19.70
2018-09-07T08:00:15.338Z,19.90
2018-09-07T08:02:43.478Z,19.90
2018-09-07T08:05:11.596Z,20.10
2018-09-07T08:07:39.724Z,20.20
2018-09-07T08:10:07.884Z,20.30
2018-09-07T08:12:36.088Z,20.40
2018-09-07T08:15:04.152Z,20.30
2018-09-07T08:17:32.608Z,20.30
2018-09-07T08:20:00.724Z,19.90
2018-09-07T08:22:28.842Z,20.10
2018-09-07T08:24:56.980Z,20.10
2018-09-07T08:27:25.117Z,20.20
2018-09-07T08:29:53.244Z,20.00
2018-09-07T08:32:21.453Z,20.10
2018-09-07T08:34:49.510Z,20.10
2018-09-07T08:37:17.742Z,20.10
2018-09-07T08:39:45.855Z,20.40
2018-09-07T08:42:13.994Z,20.40
2018-09-07T08:44:42.126Z,20.50
2018-09-07T08:47:10.263Z,20.60
2018-09-07T08:49:38.382Z,20.60
2018-09-07T08:52:06.501Z,20.30
2018-09-07T08:54:34.695Z,20.20
2018-09-07T08:57:02.766Z,20.20
2018-09-07T08:59:30.900Z,20.30
2018-09-07T09:01:59.030Z,20.40
2018-09-07T09:04:27.155Z,20.60
2018-09-07T09:06:55.296Z,20.70
2018-09-07T09:09:23.434Z,20.80
2018-09-07T09:11:51.560Z,20.70
2018-09-07T09:14:19.680Z,20.70
2018-09-07T09:16:47.809Z,20.50
2018-09-07T09:19:15.943Z,20.40
2018-09-07T09:21:44.163Z,20.60
2018-09-07T09:24:12.294Z,20.60
2018-09-07T09:26:40.400Z,20.60
2018-09-07T09:29:08.525Z,21.00
2018-09-07T09:31:36.664Z,21.20
2018-09-07T09:34:04.803Z,21.30
2018-09-07T09:36:32.931Z,21.20
2018-09-07T09:39:01.052Z,21.10
2018-09-07T09:41:29.177Z,21.00
2018-09-07T09:43:57.308Z,21.20
2018-09-07T09:46:25.432Z,21.30
2018-09-07T09:48:53.565Z,21.30
2018-09-07T09:51:21.722Z,21.40
2018-09-07T09:53:49.855Z,21.30
2018-09-07T09:56:17.964Z,21.60
2018-09-07T09:58:46.100Z,22.00
2018-09-07T10:01:19.820Z,22.40
2018-09-07T10:03:52.199Z,22.80
2018-09-07T10:06:20.643Z,23.00
2018-09-07T10:08:48.768Z,23.10
2018-09-07T10:11:16.872Z,23.10
2018-09-07T10:13:44.992Z,23.00
2018-09-07T10:16:13.084Z,23.10
2018-09-07T10:18:41.208Z,23.00
2018-09-07T10:21:09.443Z,23.10
2018-09-07T10:23:37.581Z,23.30
2018-09-07T10:26:06.006Z,23.20
2018-09-07T10:28:34.113Z,23.10
2018-09-07T10:31:02.259Z,23.00
2018-09-07T10:33:30.397Z,23.10
2018-09-07T10:35:58.507Z,23.20
2018-09-07T10:38:26.639Z,22.90
2018-09-07T10:40:54.750Z,22.80
2018-09-07T10:43:22.906Z,22.70
2018-09-07T10:45:51.032Z,22.80
2018-09-07T10:48:19.164Z,22.90
2018-09-07T10:50:47.290Z,22.90
2018-09-07T10:53:15.467Z,22.90
2018-09-07T10:55:43.536Z,23.20
2018-09-07T10:58:11.642Z,23.30
2018-09-07T11:00:39.835Z,23.20
2018-09-07T11:03:07.953Z,23.20
2018-09-07T11:05:36.052Z,23.20
2018-09-07T11:08:04.181Z,22.80
2018-09-07T11:10:32.547Z,22.90
2018-09-07T11:13:00.668Z,22.90
2018-09-07T11:15:28.795Z,23.10
2018-09-07T11:17:56.920Z,23.20
2018-09-07T11:20:25.053Z,23.10
2018-09-07T11:22:53.176Z,23.00
2018-09-07T11:25:21.302Z,22.80
2018-09-07T11:27:49.419Z,22.80
2018-09-07T11:30:17.557Z,22.80
2018-09-07T11:32:45.679Z,22.70
2018-09-07T11:35:13.811Z,22.70
2018-09-07T11:37:41.959Z,22.70
2018-09-07T11:40:10.075Z,22.70
2018-09-07T11:42:38.200Z,22.40
2018-09-07T11:45:06.506Z,22.60
2018-09-07T11:47:34.635Z,22.60
2018-09-07T11:50:02.762Z,22.60
2018-09-07T11:52:31.096Z,22.50
2018-09-07T11:54:59.231Z,22.50
2018-09-07T11:57:27.365Z,22.40
2018-09-07T11:59:55.496Z,22.40
2018-09-07T12:02:23.604Z,22.80
2018-09-07T12:04:51.748Z,22.80
2018-09-07T12:07:19.888Z,22.60
2018-09-07T12:09:48.003Z,22.80
2018-09-07T12:12:16.181Z,22.80
2018-09-07T12:14:44.297Z,23.00
2018-09-07T12:17:12.441Z,23.30
2018-09-07T12:19:40.528Z,23.50
2018-09-07T12:22:08.638Z,23.50
2018-09-07T12:24:36.787Z,23.70
2018-09-07T12:27:04.909Z,23.70
2018-09-07T12:29:33.913Z,23.90
2018-09-07T12:32:02.072Z,23.80
2018-09-07T12:34:30.175Z,23.50
2018-09-07T12:36:58.299Z,23.30
2018-09-07T12:39:26.387Z,23.20
2018-09-07T12:41:56.368Z,23.10
2018-09-07T12:44:24.765Z,22.90
2018-09-07T12:46:52.866Z,22.90
2018-09-07T12:49:20.968Z,23.00
2018-09-07T12:51:49.408Z,23.00
2018-09-07T12:54:17.519Z,23.00
2018-09-07T12:56:45.640Z,22.90
2018-09-07T12:59:13.811Z,22.90
2018-09-07T13:01:41.969Z,22.80
2018-09-07T13:04:11.892Z,23.00
2018-09-07T13:06:40.196Z,23.00
2018-09-07T13:09:11.109Z,22.90
2018-09-07T13:11:39.207Z,23.00
2018-09-07T13:14:07.315Z,23.30
2018-09-07T13:16:35.434Z,23.30
2018-09-07T13:19:03.552Z,23.30
2018-09-07T13:21:31.820Z,23.10
2018-09-07T13:23:59.887Z,23.10
2018-09-07T13:26:28.141Z,22.90
2018-09-07T13:28:56.264Z,22.90
2018-09-07T13:31:24.385Z,22.80
2018-09-07T13:33:52.558Z,22.70
2018-09-07T13:36:21.032Z,22.70
2018-09-07T13:39:02.531Z,22.70
2018-09-07T13:41:30.637Z,22.60
2018-09-07T13:43:58.772Z,22.40
2018-09-07T13:46:26.856Z,22.30
2018-09-07T13:48:54.972Z,22.10
2018-09-07T13:51:23.082Z,21.90
2018-09-07T13:53:51.228Z,21.80
2018-09-07T13:59:12.781Z,21.70
2018-09-07T14:01:40.933Z,21.60
2018-09-07T14:04:08.989Z,21.70
2018-09-07T14:06:37.152Z,21.80
2018-09-07T14:09:07.824Z,21.90
2018-09-07T14:11:36.083Z,21.90
2018-09-07T14:14:04.196Z,21.90
2018-09-07T14:16:32.320Z,21.90
2018-09-07T14:19:00.459Z,21.60
2018-09-07T14:21:28.583Z,21.50
2018-09-07T14:23:56.707Z,21.50
2018-09-07T14:26:25.003Z,21.50
2018-09-07T14:28:53.155Z,21.60
2018-09-07T14:31:21.958Z,21.70
2018-09-07T14:33:50.098Z,21.60
2018-09-07T14:36:18.212Z,21.60
2018-09-07T14:38:46.486Z,21.70
2018-09-07T14:41:14.624Z,21.70
2018-09-07T14:43:42.764Z,21.20
2018-09-07T14:46:10.889Z,21.10
2018-09-07T14:48:39.047Z,21.10
2018-09-07T14:51:07.413Z,21.10
2018-09-07T14:53:35.532Z,21.20
2018-09-07T14:56:03.648Z,21.20
2018-09-07T14:58:31.771Z,21.30
2018-09-07T15:00:59.892Z,21.40
2018-09-07T15:03:27.991Z,21.70
2018-09-07T15:05:56.096Z,21.70
2018-09-07T15:08:24.223Z,21.90
2018-09-07T15:10:52.343Z,22.00
2018-09-07T15:13:20.473Z,22.20
2018-09-07T15:15:49.048Z,21.80
2018-09-07T15:18:17.175Z,21.60
2018-09-07T15:20:45.297Z,21.40
2018-09-07T15:23:13.392Z,21.30
2018-09-07T15:25:41.508Z,21.30
2018-09-07T15:28:09.640Z,21.20
2018-09-07T15:30:37.765Z,21.30
2018-09-07T15:33:05.874Z,21.50
2018-09-07T15:35:33.995Z,21.70
2018-09-07T15:38:02.092Z,22.00
2018-09-07T15:40:30.196Z,22.10
2018-09-07T15:42:58.296Z,22.40
2018-09-07T15:45:26.393Z,22.60
2018-09-07T15:47:54.487Z,22.90
2018-09-07T15:50:22.600Z,23.10
2018-09-07T15:52:50.700Z,23.20
2018-09-07T15:55:18.931Z,23.20
2018-09-07T15:57:47.045Z,23.10
2018-09-07T16:00:15.172Z,22.90
2018-09-07T16:02:43.311Z,22.70
2018-09-07T16:05:11.504Z,22.50
2018-09-07T16:07:39.755Z,22.40
2018-09-07T16:10:07.954Z,22.30
2018-09-07T16:12:36.079Z,22.40
2018-09-07T16:15:04.451Z,22.30
2018-09-07T16:17:32.557Z,22.20
2018-09-07T16:20:00.680Z,22.10
2018-09-07T16:22:28.792Z,22.00
2018-09-07T16:24:57.103Z,22.00
2018-09-07T16:27:25.347Z,22.00
2018-09-07T16:29:53.455Z,22.00
2018-09-07T16:32:21.572Z,22.00
2018-09-07T16:34:49.856Z,21.90
2018-09-07T16:37:18.094Z,21.60
2018-09-07T16:39:46.220Z,21.50
2018-09-07T16:42:14.397Z,21.20
2018-09-07T16:44:42.483Z,21.00
2018-09-07T16:47:10.584Z,20.80
2018-09-07T16:49:38.713Z,20.70
2018-09-07T16:52:06.827Z,20.60
2018-09-07T16:54:34.987Z,20.50
2018-09-07T16:57:03.071Z,20.60
2018-09-07T16:59:31.181Z,20.50
2018-09-07T17:01:59.375Z,20.40
2018-09-07T17:04:33.113Z,20.40
2018-09-07T17:07:01.265Z,20.30
2018-09-07T17:09:29.367Z,20.20
2018-09-07T17:11:57.476Z,20.20
2018-09-07T17:14:26.267Z,20.10
2018-09-07T17:16:54.433Z,20.10
2018-09-07T17:19:22.531Z,19.90
2018-09-07T17:21:52.344Z,19.80
2018-09-07T17:24:20.460Z,19.70
2018-09-07T17:26:48.619Z,19.60
2018-09-07T17:29:16.829Z,19.50
2018-09-07T17:31:44.992Z,19.60
2018-09-07T17:34:13.095Z,19.50
2018-09-07T17:36:41.314Z,19.40
2018-09-07T17:39:09.429Z,19.30
2018-09-07T17:41:37.811Z,19.30
2018-09-07T17:44:05.939Z,19.20
2018-09-07T17:46:34.091Z,19.10
2018-09-07T17:49:02.479Z,19.10
2018-09-07T17:51:30.608Z,19.20
2018-09-07T17:53:58.887Z,19.20
2018-09-07T17:56:26.999Z,19.20
2018-09-07T17:58:55.146Z,19.30
2018-09-07T18:01:23.411Z,19.30
2018-09-07T18:03:51.527Z,19.20
2018-09-07T18:06:21.618Z,19.20
2018-09-07T18:08:50.046Z,19.00
2018-09-07T18:11:18.184Z,19.00
2018-09-07T18:13:46.283Z,19.00
2018-09-07T18:16:14.537Z,18.80
2018-09-07T18:18:42.651Z,18.80
2018-09-07T18:21:10.772Z,18.80
2018-09-07T18:23:39.460Z,18.70
2018-09-07T18:26:07.839Z,18.70
2018-09-07T18:28:35.951Z,18.70
2018-09-07T18:31:04.064Z,18.70
2018-09-07T18:33:32.196Z,18.70
2018-09-07T18:36:00.603Z,18.60
2018-09-07T18:38:28.412Z,18.60
2018-09-07T18:40:56.516Z,18.70
2018-09-07T18:43:24.711Z,18.70
2018-09-07T18:45:52.786Z,18.80
2018-09-07T18:48:20.888Z,18.50
2018-09-07T18:50:49.029Z,18.50
2018-09-07T18:53:17.335Z,18.40
2018-09-07T18:55:45.455Z,18.30
2018-09-07T18:58:13.572Z,18.20
2018-09-07T19:00:41.698Z,18.20
2018-09-07T19:03:09.824Z,18.20
2018-09-07T19:05:37.957Z,18.20
2018-09-07T19:08:06.081Z,18.10
2018-09-07T19:10:34.207Z,18.10
2018-09-07T19:13:02.329Z,18.00
2018-09-07T19:15:31.550Z,18.00
2018-09-07T19:17:59.610Z,17.90
2018-09-07T19:20:27.732Z,17.90
2018-09-07T19:22:55.933Z,17.90
2018-09-07T19:25:24.083Z,17.90
2018-09-07T19:27:52.201Z,18.00
2018-09-07T19:30:20.327Z,18.00
2018-09-07T19:32:48.447Z,17.90
2018-09-07T19:35:16.585Z,17.90
2018-09-07T19:37:44.728Z,18.00
2018-09-07T19:40:12.850Z,18.00
2018-09-07T19:42:40.974Z,17.90
2018-09-07T19:45:09.108Z,17.90
2018-09-07T19:47:37.244Z,17.80
2018-09-07T19:50:05.361Z,17.80
2018-09-07T19:52:33.508Z,17.80
2018-09-07T19:55:01.808Z,17.90
2018-09-07T19:57:29.944Z,18.00
2018-09-07T19:59:58.069Z,18.10
2018-09-07T20:02:26.208Z,18.00
2018-09-07T20:04:54.441Z,18.00
2018-09-07T20:07:22.568Z,18.10
2018-09-07T20:09:50.697Z,18.10
2018-09-07T20:12:18.815Z,18.10
2018-09-07T20:14:47.044Z,18.10
2018-09-07T20:17:15.154Z,18.00
2018-09-07T20:19:43.496Z,18.00
2018-09-07T20:22:12.484Z,18.00
2018-09-07T20:24:41.059Z,18.00
2018-09-07T20:27:09.428Z,18.00
2018-09-07T20:29:37.832Z,17.90
2018-09-07T20:32:05.923Z,17.80
2018-09-07T20:34:34.064Z,17.70
2018-09-07T20:37:02.176Z,17.70
2018-09-07T20:39:30.338Z,17.60
2018-09-07T20:41:58.488Z,17.60
2018-09-07T20:44:26.619Z,17.50
2018-09-07T20:46:54.804Z,17.40
2018-09-07T20:49:23.104Z,17.30
2018-09-07T20:51:51.211Z,17.30
2018-09-07T20:54:19.336Z,17.20
2018-09-07T20:56:47.643Z,17.10
2018-09-07T20:59:15.756Z,17.10
2018-09-07T21:01:43.966Z,17.00
2018-09-07T21:04:12.082Z,16.90
2018-09-07T21:06:40.197Z,16.80
2018-09-07T21:09:08.327Z,16.70
2018-09-07T21:11:36.445Z,16.70
2018-09-07T21:14:04.612Z,16.60
2018-09-07T21:16:33.966Z,16.60
2018-09-07T21:19:02.119Z,16.60
2018-09-07T21:21:30.248Z,16.60
2018-09-07T21:23:58.390Z,16.50
2018-09-07T21:26:26.518Z,16.40
2018-09-07T21:28:54.652Z,16.40
2018-09-07T21:31:22.797Z,16.40
2018-09-07T21:33:50.925Z,16.30
2018-09-07T21:36:19.043Z,16.20
2018-09-07T21:38:47.220Z,16.00
2018-09-07T21:41:15.410Z,15.60
2018-09-07T21:43:43.604Z,15.40
2018-09-07T21:46:11.731Z,15.30
2018-09-07T21:48:39.847Z,15.20
2018-09-07T21:51:07.975Z,15.10
2018-09-07T21:53:36.095Z,15.20
2018-09-07T21:56:04.318Z,15.20
2018-09-07T21:58:32.421Z,15.20
2018-09-07T22:01:00.553Z,15.10
2018-09-07T22:03:28.668Z,15.10
2018-09-07T22:05:56.808Z,15.20
2018-09-07T22:08:24.919Z,15.10
2018-09-07T22:10:53.042Z,15.00
2018-09-07T22:13:21.184Z,15.00
2018-09-07T22:15:49.322Z,15.00
2018-09-07T22:18:17.440Z,14.90
2018-09-07T22:20:45.562Z,14.80
2018-09-07T22:23:13.751Z,14.70
2018-09-07T22:25:41.928Z,14.70
2018-09-07T22:28:10.044Z,14.60
2018-09-07T22:30:38.169Z,14.40
2018-09-07T22:33:06.432Z,14.20
2018-09-07T22:38:27.952Z,14.20
2018-09-07T22:40:56.083Z,14.10
2018-09-07T22:43:24.207Z,14.10
2018-09-07T22:45:52.320Z,14.00
2018-09-07T22:48:20.451Z,13.90
2018-09-07T22:50:48.577Z,13.90
2018-09-07T22:53:16.697Z,13.80
2018-09-07T22:55:44.869Z,13.70
2018-09-07T23:01:06.084Z,13.50
2018-09-07T23:03:34.203Z,13.40
2018-09-07T23:06:02.479Z,13.30
2018-09-07T23:08:30.608Z,13.30
2018-09-07T23:10:58.748Z,13.30
2018-09-07T23:13:27.642Z,13.30
2018-09-07T23:15:55.776Z,13.30
2018-09-07T23:18:23.886Z,13.30
2018-09-07T23:20:52.018Z,13.20
2018-09-07T23:23:20.135Z,13.10
2018-09-07T23:25:48.322Z,13.20
2018-09-07T23:28:16.437Z,13.10
2018-09-07T23:30:44.621Z,13.10
2018-09-07T23:33:12.768Z,13.10
2018-09-07T23:35:40.892Z,13.10
2018-09-07T23:38:09.016Z,13.10
2018-09-07T23:40:37.136Z,13.20
2018-09-07T23:43:05.266Z,13.20
2018-09-07T23:45:33.388Z,13.10
2018-09-07T23:48:01.531Z,13.10
2018-09-07T23:50:29.652Z,13.00
2018-09-07T23:52:57.791Z,12.90
2018-09-07T23:55:25.926Z,12.90
2018-09-07T23:57:54.056Z,12.80
